Time;durP1;ratioP1;P1;durP2;ratioP2;P2;SDS_P1;SDS_P2;PMS_P1;PMS_P2;Temp;Humidity;BMP_temperature;BMP_pressure;BME280_temperature;BME280_humidity;BME280_pressure;Samples;Min_cycle;Max_cycle;Signal;HPM_P1;HPM_P2
2022/12/29 05:01:25;;;;;;;3.00;1.42;;;12.30;99.90;;;;;;5499148;23;20031;-71
2022/12/29 05:03:51;;;;;;;2.80;1.40;;;12.30;99.90;;;;;;4974151;28;20031;-72
2022/12/29 05:06:17;;;;;;;2.17;0.95;;;12.30;99.90;;;;;;4983823;28;20029;-71
2022/12/29 05:08:43;;;;;;;4.33;1.20;;;12.40;99.90;;;;;;4995053;28;20038;-71
2022/12/29 05:11:08;;;;;;;3.17;1.23;;;12.30;99.90;;;;;;4995066;28;20122;-71
2022/12/29 05:13:34;;;;;;;2.80;1.30;;;12.40;99.90;;;;;;4993649;28;20027;-71
2022/12/29 05:15:59;;;;;;;2.07;1.13;;;12.30;99.90;;;;;;4995325;28;20105;-72
2022/12/29 05:18:25;;;;;;;3.73;1.30;;;12.30;99.90;;;;;;4995478;28;20475;-71
2022/12/29 05:20:50;;;;;;;3.63;1.17;;;12.30;99.90;;;;;;4995235;28;20023;-71
2022/12/29 05:23:16;;;;;;;2.50;1.20;;;12.30;99.90;;;;;;4995845;28;20033;-71
2022/12/29 05:25:44;;;;;;;3.10;1.33;;;12.30;99.90;;;;;;4995927;28;20455;-71
2022/12/29 05:28:10;;;;;;;2.38;1.30;;;12.30;99.90;;;;;;4995732;28;20030;-71
2022/12/29 05:30:35;;;;;;;3.47;1.23;;;12.30;99.90;;;;;;4996069;28;20030;-71
2022/12/29 05:33:01;;;;;;;4.43;1.63;;;12.40;99.90;;;;;;4994683;28;20031;-72
2022/12/29 05:35:27;;;;;;;2.53;1.40;;;12.40;99.90;;;;;;4996499;28;20034;-71
2022/12/29 05:37:52;;;;;;;2.17;1.43;;;12.40;99.90;;;;;;4999051;28;20124;-71
2022/12/29 05:40:18;;;;;;;2.87;1.43;;;12.40;99.90;;;;;;4999453;28;20037;-71
2022/12/29 05:42:43;;;;;;;3.57;1.37;;;12.40;99.90;;;;;;4997088;28;20018;-71
2022/12/29 05:45:09;;;;;;;3.03;1.57;;;12.50;99.90;;;;;;4998538;28;20030;-71
2022/12/29 05:47:35;;;;;;;3.38;1.50;;;12.40;99.90;;;;;;4997612;28;20030;-71
2022/12/29 05:50:01;;;;;;;2.27;1.33;;;12.40;99.90;;;;;;4998422;28;20038;-71
2022/12/29 05:52:26;;;;;;;3.88;1.27;;;12.50;99.90;;;;;;4998399;28;20035;-71
2022/12/29 05:54:52;;;;;;;2.67;1.43;;;12.40;99.90;;;;;;4998879;28;20120;-71
2022/12/29 05:57:17;;;;;;;3.93;1.63;;;12.40;99.90;;;;;;5005686;28;20030;-71
2022/12/29 05:59:43;;;;;;;5.80;1.40;;;12.30;99.90;;;;;;5006430;28;20030;-71
2022/12/29 06:02:09;;;;;;;3.40;1.40;;;12.40;99.90;;;;;;5008864;28;20042;-71
2022/12/29 06:04:34;;;;;;;3.53;1.77;;;12.30;99.90;;;;;;4999418;28;20026;-71
2022/12/29 06:07:00;;;;;;;3.63;1.50;;;12.30;99.90;;;;;;4999237;28;20041;-70
2022/12/29 06:09:26;;;;;;;4.23;1.40;;;12.20;99.90;;;;;;4997912;28;20030;-70
2022/12/29 06:11:51;;;;;;;3.30;1.30;;;12.20;99.90;;;;;;4996982;28;20050;-71
2022/12/29 06:14:17;;;;;;;5.03;1.97;;;12.30;99.90;;;;;;4998423;28;20062;-70
2022/12/29 06:16:42;;;;;;;5.00;1.57;;;12.30;99.90;;;;;;4998259;28;20034;-70
2022/12/29 06:19:08;;;;;;;4.23;1.50;;;12.30;99.90;;;;;;4998806;28;20518;-71
2022/12/29 06:21:33;;;;;;;3.17;1.40;;;12.30;99.90;;;;;;4997502;28;20034;-70
2022/12/29 06:23:59;;;;;;;5.00;1.70;;;12.40;99.90;;;;;;4996793;28;20490;-70
2022/12/29 06:26:24;;;;;;;2.70;1.80;;;12.40;99.90;;;;;;4998687;28;20026;-70
2022/12/29 06:28:50;;;;;;;2.57;1.50;;;12.50;99.90;;;;;;4998400;28;20399;-71
2022/12/29 06:31:15;;;;;;;2.80;1.70;;;12.50;99.90;;;;;;4996609;28;20398;-70
2022/12/29 06:33:41;;;;;;;5.93;1.47;;;12.60;99.90;;;;;;4996587;28;20034;-70
2022/12/29 06:36:07;;;;;;;2.33;1.40;;;12.70;99.90;;;;;;4996362;28;20027;-70
2022/12/29 06:38:32;;;;;;;3.10;1.77;;;12.80;99.90;;;;;;4996417;28;20595;-70
2022/12/29 06:40:58;;;;;;;4.10;1.40;;;12.80;99.90;;;;;;4998559;28;20050;-71
2022/12/29 06:43:23;;;;;;;3.60;1.50;;;12.80;99.90;;;;;;4996596;28;20455;-70
2022/12/29 06:45:49;;;;;;;3.57;1.50;;;12.80;99.90;;;;;;4997471;28;20030;-73
2022/12/29 06:48:14;;;;;;;5.27;1.60;;;12.90;99.90;;;;;;4996111;28;20394;-71
2022/12/29 06:50:40;;;;;;;6.00;1.50;;;12.80;99.90;;;;;;4997166;28;20026;-70
2022/12/29 06:53:06;;;;;;;3.20;1.50;;;12.80;99.90;;;;;;4997824;28;20026;-70
2022/12/29 06:55:31;;;;;;;4.53;1.60;;;12.70;99.90;;;;;;4984956;28;20087;-70
2022/12/29 06:57:58;;;;;;;3.67;1.80;;;12.70;99.90;;;;;;4957827;29;20063;-70
2022/12/29 07:00:25;;;;;;;3.50;1.50;;;12.70;99.90;;;;;;4958751;28;20502;-70
2022/12/29 07:02:51;;;;;;;3.47;1.50;;;12.70;99.90;;;;;;4958875;28;20024;-70
2022/12/29 07:05:16;;;;;;;3.42;1.48;;;12.70;99.90;;;;;;4958262;28;20570;-70
2022/12/29 07:07:42;;;;;;;3.00;1.30;;;12.80;99.90;;;;;;4958320;28;20546;-70
2022/12/29 07:10:07;;;;;;;2.60;1.27;;;12.70;99.90;;;;;;4973948;28;20027;-70
2022/12/29 07:12:33;;;;;;;4.10;1.50;;;12.70;99.90;;;;;;4957503;28;20086;-70
2022/12/29 07:14:58;;;;;;;3.50;1.53;;;12.80;99.90;;;;;;4958965;28;20035;-70
2022/12/29 07:17:24;;;;;;;2.37;1.40;;;12.80;99.90;;;;;;4958674;28;20038;-70
2022/12/29 07:19:49;;;;;;;2.23;1.40;;;12.70;99.90;;;;;;4971479;28;20102;-70
2022/12/29 07:22:15;;;;;;;4.10;1.50;;;12.70;99.90;;;;;;4976855;28;20062;-71
2022/12/29 07:24:41;;;;;;;2.07;1.23;;;12.70;99.90;;;;;;4977498;28;20019;-70
2022/12/29 07:27:07;;;;;;;3.50;1.27;;;12.70;99.90;;;;;;4976886;28;20030;-70
2022/12/29 07:29:33;;;;;;;4.80;1.73;;;12.70;99.90;;;;;;4976107;28;20019;-70
2022/12/29 07:31:58;;;;;;;3.03;1.30;;;12.70;99.90;;;;;;4977402;28;20069;-70
2022/12/29 07:34:24;;;;;;;4.40;1.47;;;12.70;99.90;;;;;;4975838;28;20051;-70
2022/12/29 07:36:49;;;;;;;4.03;1.70;;;12.70;99.90;;;;;;4978604;28;20023;-70
2022/12/29 07:39:15;;;;;;;2.97;1.33;;;12.70;99.90;;;;;;4977993;28;20037;-70
2022/12/29 07:41:40;;;;;;;6.23;1.83;;;12.70;99.90;;;;;;4978214;28;20033;-70
2022/12/29 07:44:08;;;;;;;2.73;1.50;;;12.80;99.90;;;;;;4977569;28;20034;-70
2022/12/29 07:46:33;;;;;;;3.85;1.10;;;12.80;99.90;;;;;;4977931;28;20105;-70
2022/12/29 07:48:59;;;;;;;4.07;1.57;;;12.80;99.90;;;;;;4977072;28;20066;-70
2022/12/29 07:51:24;;;;;;;3.93;1.57;;;12.80;99.90;;;;;;4977261;28;20436;-70
2022/12/29 07:53:50;;;;;;;3.10;1.30;;;12.90;99.90;;;;;;4977658;28;20031;-70
2022/12/29 07:56:15;;;;;;;2.03;1.50;;;12.90;99.90;;;;;;4978019;28;20038;-70
2022/12/29 07:58:42;;;;;;;4.67;1.30;;;12.80;99.90;;;;;;4977913;28;20031;-70
2022/12/29 08:01:07;;;;;;;2.55;1.48;;;12.90;99.90;;;;;;4978483;28;20488;-71
2022/12/29 08:03:33;;;;;;;3.70;1.47;;;12.90;99.90;;;;;;4982238;28;20030;-71
2022/12/29 08:05:58;;;;;;;4.23;1.57;;;12.80;99.90;;;;;;4996922;28;20014;-72
2022/12/29 08:08:24;;;;;;;3.83;1.13;;;12.80;99.90;;;;;;4988184;28;20027;-71
2022/12/29 08:10:50;;;;;;;4.53;1.80;;;12.90;99.90;;;;;;4977393;28;20333;-71
2022/12/29 08:13:15;;;;;;;2.87;1.50;;;12.90;99.90;;;;;;4976540;28;20395;-71
2022/12/29 08:15:41;;;;;;;4.73;1.60;;;13.00;99.90;;;;;;4976245;28;20433;-71
2022/12/29 08:18:07;;;;;;;6.17;1.60;;;13.00;99.90;;;;;;4974503;28;20460;-71
2022/12/29 08:20:32;;;;;;;6.30;1.73;;;13.10;99.90;;;;;;4976508;28;20023;-70
2022/12/29 08:22:58;;;;;;;4.17;1.60;;;13.10;99.90;;;;;;4974665;28;20026;-71
2022/12/29 08:25:23;;;;;;;4.37;1.50;;;13.20;99.90;;;;;;4975753;28;20158;-71
2022/12/29 08:27:49;;;;;;;3.40;1.53;;;13.20;99.90;;;;;;4978188;28;20037;-71
2022/12/29 08:30:14;;;;;;;4.53;1.50;;;13.20;99.90;;;;;;4978732;28;20069;-71
2022/12/29 08:32:40;;;;;;;2.75;1.40;;;13.30;99.90;;;;;;4976807;28;20101;-73
2022/12/29 08:35:06;;;;;;;3.28;1.50;;;13.30;99.90;;;;;;4975971;28;20026;-70
2022/12/29 08:37:33;;;;;;;2.80;1.17;;;13.30;99.90;;;;;;4965212;28;20377;-71
2022/12/29 08:39:59;;;;;;;5.15;1.70;;;13.30;99.90;;;;;;4964035;28;20122;-71
2022/12/29 08:42:30;;;;;;;2.60;1.50;;;13.30;99.90;;;;;;4975818;28;20415;-70
2022/12/29 08:44:59;;;;;;;2.60;1.27;;;13.30;99.90;;;;;;4973484;28;20081;-70
2022/12/29 08:47:25;;;;;;;4.05;1.60;;;13.40;99.90;;;;;;4975235;28;20077;-70
2022/12/29 08:49:50;;;;;;;2.25;1.27;;;13.30;99.90;;;;;;4974956;28;20015;-71
2022/12/29 08:52:16;;;;;;;2.67;1.43;;;13.40;99.90;;;;;;4974408;28;20034;-70
2022/12/29 08:54:42;;;;;;;4.60;1.38;;;13.40;99.90;;;;;;4976350;28;20426;-70
2022/12/29 08:57:07;;;;;;;5.40;1.83;;;13.50;99.90;;;;;;4980708;28;20038;-70
2022/12/29 08:59:33;;;;;;;4.13;1.97;;;13.50;99.90;;;;;;4976090;28;20075;-70
2022/12/29 09:01:58;;;;;;;3.03;1.60;;;13.50;99.90;;;;;;4976144;28;20043;-70
2022/12/29 09:04:24;;;;;;;2.17;1.20;;;13.50;99.90;;;;;;4975554;28;20081;-70
2022/12/29 09:06:50;;;;;;;1.80;1.20;;;13.50;99.90;;;;;;4973652;28;20114;-70
2022/12/29 09:09:15;;;;;;;5.90;1.33;;;13.50;99.90;;;;;;4974204;28;20483;-70
2022/12/29 09:11:41;;;;;;;4.97;1.55;;;13.60;99.90;;;;;;4978475;28;20023;-70
2022/12/29 09:14:07;;;;;;;3.25;1.42;;;13.50;99.90;;;;;;4978697;28;20035;-70
2022/12/29 09:16:33;;;;;;;4.15;1.35;;;13.50;99.90;;;;;;4980489;28;20091;-70
2022/12/29 09:18:59;;;;;;;3.78;1.42;;;13.60;99.90;;;;;;4978854;28;20067;-70
2022/12/29 09:21:25;;;;;;;2.70;1.30;;;13.60;99.90;;;;;;4979917;28;20031;-70
2022/12/29 09:23:50;;;;;;;5.47;1.20;;;13.70;99.90;;;;;;4981381;28;20027;-70
2022/12/29 09:26:16;;;;;;;3.77;1.20;;;13.70;99.90;;;;;;4980369;28;20023;-70
2022/12/29 09:28:42;;;;;;;4.50;1.10;;;13.60;99.90;;;;;;4980199;28;20105;-70
2022/12/29 09:31:07;;;;;;;3.75;1.33;;;13.70;99.90;;;;;;4979439;28;20033;-70
2022/12/29 09:33:34;;;;;;;5.23;1.47;;;13.80;99.90;;;;;;4979226;28;20035;-70
2022/12/29 09:35:59;;;;;;;4.07;1.77;;;13.80;99.90;;;;;;4977798;28;20416;-70
2022/12/29 09:38:26;;;;;;;4.13;1.17;;;14.00;99.90;;;;;;4978734;28;20062;-70
2022/12/29 09:41:14;;;;;;;3.30;1.50;;;14.10;99.90;;;;;;4977195;28;20026;-70
2022/12/29 09:43:40;;;;;;;3.72;1.50;;;14.10;99.90;;;;;;4978631;28;20105;-70
2022/12/29 09:46:26;;;;;;;3.20;1.20;;;14.10;99.90;;;;;;4977290;28;20506;-70
2022/12/29 09:49:04;;;;;;;3.80;1.38;;;14.20;99.90;;;;;;4978956;28;20501;-70
2022/12/29 09:51:31;;;;;;;3.03;1.30;;;14.20;99.90;;;;;;4978494;28;20081;-70
2022/12/29 09:54:12;;;;;;;3.08;1.23;;;14.20;99.90;;;;;;4978538;28;20476;-70
2022/12/29 09:56:38;;;;;;;3.90;1.38;;;14.30;99.90;;;;;;4978786;28;20431;-70
2022/12/29 09:59:19;;;;;;;4.97;1.38;;;14.30;99.90;;;;;;4978639;28;20035;-70
2022/12/29 10:01:57;;;;;;;2.22;1.52;;;14.30;99.90;;;;;;4977042;28;20126;-70
2022/12/29 10:04:26;;;;;;;3.88;1.45;;;14.40;99.90;;;;;;4977596;28;20436;-70
2022/12/29 10:07:02;;;;;;;3.17;1.83;;;14.40;99.90;;;;;;4977540;28;20054;-69
2022/12/29 10:09:53;;;;;;;3.50;1.30;;;14.40;99.90;;;;;;4978060;28;20551;-69
2022/12/29 10:12:53;;;;;;;5.20;1.63;;;14.30;99.90;;;;;;4978644;28;20085;-69
2022/12/29 10:15:40;;;;;;;5.05;1.40;;;14.30;99.90;;;;;;4973907;28;20162;-69
2022/12/29 10:18:34;;;;;;;4.05;1.77;;;14.20;99.90;;;;;;4975615;28;20031;-68
2022/12/29 10:21:07;;;;;;;2.45;1.55;;;14.00;99.90;;;;;;4968486;28;20046;-69
2022/12/29 10:23:41;;;;;;;3.10;1.63;;;13.80;99.90;;;;;;4955109;28;20034;-69
2022/12/29 10:26:15;;;;;;;3.58;2.20;;;13.60;99.90;;;;;;4975517;28;20399;-69
2022/12/29 10:28:47;;;;;;;4.53;1.80;;;13.50;99.90;;;;;;4977286;28;20455;-69
2022/12/29 10:31:20;;;;;;;5.45;2.10;;;13.40;99.90;;;;;;4978686;28;20388;-69
2022/12/29 10:33:51;;;;;;;6.55;1.92;;;13.40;99.90;;;;;;4978144;28;20030;-69
2022/12/29 10:36:23;;;;;;;5.22;1.85;;;13.40;99.90;;;;;;4972120;28;20042;-68
2022/12/29 10:39:23;;;;;;;3.30;1.60;;;13.50;99.90;;;;;;4972451;28;20487;-69
2022/12/29 10:42:07;;;;;;;4.80;1.58;;;13.70;99.90;;;;;;4968287;28;20026;-69
2022/12/29 10:44:34;;;;;;;5.15;1.60;;;13.80;99.90;;;;;;4976917;28;20019;-68
2022/12/29 10:47:04;;;;;;;2.92;1.52;;;13.80;99.90;;;;;;4977613;28;20467;-71
2022/12/29 10:49:34;;;;;;;5.38;1.30;;;13.90;99.90;;;;;;4978815;28;20035;-70
2022/12/29 10:52:03;;;;;;;3.85;1.50;;;13.90;99.90;;;;;;4977183;28;20027;-69
2022/12/29 10:54:53;;;;;;;4.25;1.70;;;14.10;99.90;;;;;;4977015;28;20035;-71
2022/12/29 10:57:36;;;;;;;3.92;1.25;;;14.10;99.90;;;;;;4976665;28;20049;-72
2022/12/29 11:00:17;;;;;;;4.47;1.60;;;14.10;99.90;;;;;;4977968;28;20077;-72
2022/12/29 11:03:10;;;;;;;2.63;1.27;;;14.10;99.90;;;;;;4970140;28;20042;-71
2022/12/29 11:05:51;;;;;;;5.45;1.50;;;14.10;99.90;;;;;;4959447;28;20019;-70
2022/12/29 11:08:25;;;;;;;4.45;1.70;;;14.10;99.90;;;;;;4959749;28;20480;-72
2022/12/29 11:11:01;;;;;;;3.47;1.30;;;14.20;99.90;;;;;;4961733;28;20038;-70
2022/12/29 11:13:29;;;;;;;3.83;1.43;;;14.10;99.90;;;;;;4969539;28;20023;-69
2022/12/29 11:15:55;;;;;;;2.80;1.50;;;14.10;99.90;;;;;;4977688;28;20093;-70
2022/12/29 11:18:39;;;;;;;2.00;1.17;;;14.10;99.90;;;;;;4975233;28;20062;-70
2022/12/29 11:21:28;;;;;;;2.50;1.60;;;14.10;99.90;;;;;;4972427;28;20030;-73
2022/12/29 11:24:24;;;;;;;4.63;1.88;;;14.20;99.90;;;;;;4999680;23;20046;-71
2022/12/29 11:27:14;;;;;;;3.25;1.50;;;14.10;99.90;;;;;;4969756;28;20089;-69
2022/12/29 11:29:41;;;;;;;4.55;1.35;;;14.10;99.90;;;;;;4973043;28;20034;-68
2022/12/29 11:32:19;;;;;;;4.65;1.48;;;14.20;99.90;;;;;;4971097;28;20094;-71
2022/12/29 11:34:45;;;;;;;4.20;1.55;;;14.30;99.90;;;;;;4967624;28;20361;-67
2022/12/29 11:37:18;;;;;;;6.45;2.90;;;14.30;99.90;;;;;;4957566;28;20026;-67
2022/12/29 11:39:59;;;;;;;4.13;2.08;;;14.30;99.90;;;;;;4967527;28;20435;-67
2022/12/29 11:42:36;;;;;;;4.13;1.77;;;14.30;99.90;;;;;;4966824;28;20019;-67
2022/12/29 11:45:17;;;;;;;5.97;1.90;;;14.30;99.90;;;;;;4968585;28;20329;-67
2022/12/29 11:47:48;;;;;;;4.15;1.90;;;14.30;99.90;;;;;;4969345;28;20043;-67
2022/12/29 11:50:29;;;;;;;3.08;1.40;;;14.20;99.90;;;;;;4973171;28;20054;-67
2022/12/29 11:53:21;;;;;;;3.05;1.50;;;14.20;99.90;;;;;;4967709;28;20396;-67
2022/12/29 11:56:09;;;;;;;2.55;1.30;;;14.20;99.90;;;;;;4957864;28;20027;-66
2022/12/29 11:58:37;;;;;;;3.22;1.50;;;14.20;99.90;;;;;;4962751;28;20106;-66
2022/12/29 12:01:15;;;;;;;5.15;2.33;;;14.30;99.90;;;;;;4971994;28;20117;-67
2022/12/29 12:04:00;;;;;;;2.47;1.20;;;14.30;99.90;;;;;;4969698;28;20114;-66
2022/12/29 12:06:29;;;;;;;2.72;1.38;;;14.30;99.90;;;;;;4967406;28;20114;-67
2022/12/29 12:09:00;;;;;;;2.47;1.30;;;14.40;99.90;;;;;;4979905;28;20030;-67
2022/12/29 12:11:36;;;;;;;2.22;0.90;;;14.40;99.90;;;;;;4980187;28;20035;-67
2022/12/29 12:14:17;;;;;;;3.03;0.95;;;14.40;99.90;;;;;;4982105;28;20038;-67
2022/12/29 12:16:53;;;;;;;4.63;1.10;;;14.40;99.90;;;;;;4972086;28;20587;-67
2022/12/29 12:19:23;;;;;;;1.80;0.80;;;14.50;99.90;;;;;;4969118;28;20029;-67
2022/12/29 12:21:55;;;;;;;2.80;1.13;;;14.60;99.90;;;;;;4968443;28;20034;-66
2022/12/29 12:24:34;;;;;;;2.10;0.98;;;14.60;99.90;;;;;;4966253;28;20392;-66
2022/12/29 12:27:17;;;;;;;2.70;0.93;;;14.60;99.90;;;;;;4965432;28;20026;-66
2022/12/29 12:29:51;;;;;;;3.05;1.25;;;14.50;99.90;;;;;;4968497;28;20033;-66
2022/12/29 12:32:37;;;;;;;2.33;0.80;;;14.50;99.90;;;;;;4961795;28;20065;-66
2022/12/29 12:35:04;;;;;;;2.90;1.15;;;14.30;99.90;;;;;;4967689;28;20030;-66
2022/12/29 12:37:47;;;;;;;;;;;14.40;99.90;;;;;;4965437;28;20023;-69
2022/12/29 12:40:33;;;;;;;1.70;1.23;;;14.40;99.90;;;;;;4961054;28;20394;-66
2022/12/29 12:43:32;;;;;;;3.17;0.88;;;14.40;99.90;;;;;;4965497;28;20026;-66
2022/12/29 12:46:28;;;;;;;1.75;0.80;;;14.40;99.90;;;;;;4973630;28;20488;-66
2022/12/29 12:49:03;;;;;;;2.10;0.90;;;14.30;99.90;;;;;;4973517;28;20082;-67
2022/12/29 12:51:44;;;;;;;3.47;1.13;;;14.20;99.90;;;;;;4974608;28;20031;-65
2022/12/29 12:54:35;;;;;;;2.13;1.08;;;14.20;99.90;;;;;;4974238;28;20373;-65
2022/12/29 12:57:14;;;;;;;5.80;1.13;;;14.30;99.90;;;;;;4967541;28;20024;-67
2022/12/29 12:59:49;;;;;;;2.58;1.10;;;14.30;99.90;;;;;;4973823;28;20479;-65
2022/12/29 13:02:33;;;;;;;3.45;1.17;;;14.20;99.90;;;;;;4974634;28;20035;-65
2022/12/29 13:05:36;;;;;;;3.70;1.38;;;14.30;99.90;;;;;;4968757;28;20550;-65
2022/12/29 13:08:25;;;;;;;2.83;1.20;;;14.30;99.90;;;;;;4958828;28;20522;-67
2022/12/29 13:11:11;;;;;;;5.55;1.25;;;14.20;99.90;;;;;;4957021;28;20032;-66
2022/12/29 13:13:58;;;;;;;6.65;2.92;;;14.30;99.90;;;;;;4956160;28;20528;-65
2022/12/29 13:16:45;;;;;;;3.92;1.83;;;14.30;99.90;;;;;;4968368;28;20542;-66
2022/12/29 13:19:19;;;;;;;3.17;1.20;;;14.20;99.90;;;;;;4972080;28;20035;-66
2022/12/29 13:22:01;;;;;;;1.85;1.10;;;14.20;99.90;;;;;;4971749;28;20562;-66
2022/12/29 13:25:11;;;;;;;2.65;1.10;;;14.20;99.90;;;;;;4974590;28;20063;-66
2022/12/29 13:27:53;;;;;;;3.15;0.95;;;14.10;99.90;;;;;;4966552;28;20089;-68
2022/12/29 13:30:40;;;;;;;2.40;0.95;;;14.00;99.90;;;;;;4972730;28;20054;-66
2022/12/29 13:33:26;;;;;;;4.78;1.00;;;13.90;99.90;;;;;;4973605;28;20057;-66
2022/12/29 13:36:02;;;;;;;2.17;1.13;;;13.70;99.90;;;;;;4963422;28;20348;-66
2022/12/29 13:38:48;;;;;;;3.50;1.40;;;13.70;99.90;;;;;;4973688;28;20029;-66
2022/12/29 13:41:39;;;;;;;3.83;1.35;;;13.50;99.90;;;;;;4972496;28;20073;-65
2022/12/29 13:44:06;;;;;;;2.25;1.20;;;13.40;99.90;;;;;;4973484;28;20038;-67
2022/12/29 13:46:42;;;;;;;5.05;1.05;;;13.30;99.90;;;;;;4973427;28;20034;-66
2022/12/29 13:49:18;;;;;;;3.20;1.25;;;13.20;99.90;;;;;;4973799;28;20515;-66
2022/12/29 13:51:57;;;;;;;3.17;1.00;;;13.10;99.90;;;;;;4973467;28;20039;-66
2022/12/29 13:54:32;;;;;;;3.53;1.02;;;12.90;99.90;;;;;;4973034;28;20027;-66
2022/12/29 13:57:34;;;;;;;1.52;0.90;;;12.70;99.90;;;;;;4973149;28;20039;-65
2022/12/29 14:00:21;;;;;;;2.72;1.02;;;12.50;99.90;;;;;;4977264;28;20384;-66
2022/12/29 14:02:46;;;;;;;2.03;0.70;;;12.30;99.90;;;;;;4976547;28;20027;-66
2022/12/29 14:05:18;;;;;;;2.40;0.63;;;12.20;99.90;;;;;;4977089;28;20360;-66
2022/12/29 14:07:44;;;;;;;1.88;0.93;;;12.00;99.90;;;;;;4976618;28;20027;-66
2022/12/29 14:10:28;;;;;;;2.53;0.88;;;11.90;99.90;;;;;;4977597;28;20074;-67
2022/12/29 14:13:04;;;;;;;2.38;1.10;;;11.80;99.90;;;;;;4977475;28;20078;-66
2022/12/29 14:15:30;;;;;;;3.90;1.20;;;11.70;99.90;;;;;;4977266;28;20026;-66
2022/12/29 14:18:23;;;;;;;1.42;1.00;;;11.60;99.90;;;;;;4971149;28;20026;-66
2022/12/29 14:21:18;;;;;;;2.35;1.15;;;11.60;99.90;;;;;;4976026;28;20432;-65
2022/12/29 14:23:46;;;;;;;1.65;0.90;;;11.60;99.90;;;;;;4975917;28;20038;-65
2022/12/29 14:26:35;;;;;;;1.80;1.00;;;11.60;99.90;;;;;;4977023;28;20134;-65
2022/12/29 14:29:30;;;;;;;1.65;0.90;;;11.50;99.90;;;;;;4975512;28;20507;-64
2022/12/29 14:31:55;;;;;;;1.63;0.77;;;11.30;99.90;;;;;;4972036;28;20124;-65
2022/12/29 14:34:21;;;;;;;2.90;0.80;;;11.20;99.90;;;;;;4976322;28;20057;-69
2022/12/29 14:36:58;;;;;;;3.67;0.80;;;11.10;99.90;;;;;;4970829;28;20035;-70
2022/12/29 14:39:44;;;;;;;3.50;0.70;;;11.00;99.90;;;;;;4963224;28;20146;-69
2022/12/29 14:42:10;;;;;;;8.55;3.80;;;10.90;99.90;;;;;;4956979;28;20020;-70
2022/12/29 14:45:01;;;;;;;6.03;1.73;;;10.80;99.90;;;;;;4959892;28;20111;-77
2022/12/29 14:47:29;;;;;;;3.55;1.00;;;10.80;99.90;;;;;;4976430;28;20031;-70
2022/12/29 14:49:55;;;;;;;2.67;1.40;;;10.80;99.90;;;;;;4975069;28;20046;-68
2022/12/29 14:52:24;;;;;;;2.83;1.00;;;10.80;99.90;;;;;;4975808;28;20417;-69
2022/12/29 14:55:00;;;;;;;2.42;0.80;;;10.80;99.90;;;;;;4976174;28;20484;-71
2022/12/29 14:57:39;;;;;;;2.78;1.08;;;10.80;99.90;;;;;;4977438;28;20029;-72
2022/12/29 15:00:27;;;;;;;6.05;1.40;;;10.80;99.90;;;;;;4971724;28;20022;-70
2022/12/29 15:03:16;;;;;;;4.60;1.55;;;10.90;99.90;;;;;;4975273;28;20027;-68
2022/12/29 15:06:06;;;;;;;4.68;2.58;;;10.90;99.90;;;;;;4954738;28;20392;-71
2022/12/29 15:08:37;;;;;;;3.33;1.30;;;10.90;99.90;;;;;;4955570;28;20035;-69
2022/12/29 15:11:22;;;;;;;3.97;1.55;;;10.90;99.90;;;;;;4956603;28;20121;-71
2022/12/29 15:13:48;;;;;;;2.92;0.98;;;11.00;99.90;;;;;;4967606;28;20031;-68
2022/12/29 15:16:24;;;;;;;3.58;1.33;;;11.00;99.90;;;;;;4976093;28;20411;-68
2022/12/29 15:18:50;;;;;;;3.00;1.30;;;10.90;99.90;;;;;;4975839;28;20554;-67
2022/12/29 15:21:16;;;;;;;2.67;1.27;;;10.90;99.90;;;;;;4975697;28;20051;-67
2022/12/29 15:23:44;;;;;;;5.47;1.63;;;11.00;99.90;;;;;;4973659;28;20054;-67
2022/12/29 15:26:11;;;;;;;2.95;1.20;;;11.00;99.90;;;;;;4977004;28;20056;-67
2022/12/29 15:28:46;;;;;;;3.25;1.00;;;10.90;99.90;;;;;;4975674;28;20097;-67
2022/12/29 15:31:20;;;;;;;2.85;0.85;;;10.80;99.90;;;;;;4974096;28;20023;-66
2022/12/29 15:33:49;;;;;;;4.72;1.55;;;10.70;99.90;;;;;;4975273;28;20042;-67
2022/12/29 15:36:20;;;;;;;5.15;2.03;;;10.70;99.90;;;;;;4975363;28;20027;-67
2022/12/29 15:38:46;;;;;;;6.10;1.90;;;10.60;99.90;;;;;;4974792;28;20031;-68
2022/12/29 15:41:59;;;;;;;3.05;1.40;;;10.60;99.90;;;;;;4973585;28;20029;-67
2022/12/29 15:44:34;;;;;;;5.65;1.95;;;10.60;99.90;;;;;;4973684;28;20027;-68
2022/12/29 15:47:05;;;;;;;3.97;1.63;;;10.60;99.90;;;;;;4975557;28;20050;-67
2022/12/29 15:49:31;;;;;;;3.40;0.93;;;10.50;99.90;;;;;;4988184;28;20027;-68
2022/12/29 15:51:58;;;;;;;3.35;1.70;;;10.50;99.90;;;;;;4993673;28;20053;-69
2022/12/29 15:54:24;;;;;;;;;;;10.50;99.90;;;;;;4993942;28;20072;-71
2022/12/29 15:56:50;;;;;;;3.70;1.30;;;10.60;99.90;;;;;;4994850;28;19906;-71
2022/12/29 15:59:31;;;;;;;3.00;1.52;;;10.60;99.90;;;;;;4994562;28;20485;-71
2022/12/29 16:01:58;;;;;;;3.17;1.30;;;10.60;99.90;;;;;;4993292;28;20049;-70
2022/12/29 16:04:27;;;;;;;4.68;1.50;;;10.70;99.90;;;;;;4993051;28;20443;-68
2022/12/29 16:07:01;;;;;;;2.65;1.10;;;10.70;99.90;;;;;;4992744;28;20026;-69
2022/12/29 16:09:34;;;;;;;3.17;1.50;;;10.70;99.90;;;;;;4992894;28;20023;-70
2022/12/29 16:12:04;;;;;;;4.03;1.17;;;10.60;99.90;;;;;;4994207;28;20502;-67
2022/12/29 16:14:32;;;;;;;2.75;1.20;;;10.60;99.90;;;;;;4992923;28;20034;-67
2022/12/29 16:17:01;;;;;;;4.75;1.70;;;10.70;99.90;;;;;;4992712;28;20034;-67
2022/12/29 16:19:39;;;;;;;4.72;1.58;;;10.70;99.90;;;;;;4980761;28;20053;-67
2022/12/29 16:22:12;;;;;;;4.85;1.23;;;10.80;99.90;;;;;;4974178;28;20409;-66
2022/12/29 16:24:39;;;;;;;3.50;1.40;;;10.70;99.90;;;;;;4974775;28;20089;-67
2022/12/29 16:27:08;;;;;;;3.25;1.40;;;10.70;99.90;;;;;;4975663;28;20538;-67
2022/12/29 16:29:35;;;;;;;6.07;2.03;;;10.70;99.90;;;;;;4974376;28;20030;-66
2022/12/29 16:32:02;;;;;;;6.85;1.55;;;10.70;99.90;;;;;;4973959;28;20437;-66
2022/12/29 16:34:37;;;;;;;5.00;1.52;;;10.80;99.90;;;;;;4974587;28;20027;-67
2022/12/29 16:37:32;;;;;;;4.47;1.63;;;10.80;99.90;;;;;;4972826;28;20031;-67
2022/12/29 16:40:17;;;;;;;2.92;1.75;;;10.80;99.90;;;;;;4973302;28;20069;-67
2022/12/29 16:42:42;;;;;;;5.10;1.58;;;10.80;99.90;;;;;;4974740;28;20033;-68
2022/12/29 16:45:23;;;;;;;4.90;1.80;;;10.80;99.90;;;;;;4972777;28;20027;-66
2022/12/29 16:48:07;;;;;;;3.65;1.75;;;10.70;99.90;;;;;;4974200;28;20049;-65
2022/12/29 16:50:38;;;;;;;5.35;1.90;;;10.70;99.90;;;;;;4974806;28;20031;-66
2022/12/29 16:53:05;;;;;;;4.28;1.83;;;10.80;99.90;;;;;;4972693;28;20492;-69
2022/12/29 16:55:31;;;;;;;5.20;1.77;;;10.70;99.90;;;;;;4974291;28;20498;-68
2022/12/29 16:57:58;;;;;;;5.00;2.30;;;10.70;99.90;;;;;;4974339;28;20023;-68
2022/12/29 17:00:26;;;;;;;7.55;1.63;;;10.80;99.90;;;;;;4974338;28;20387;-67
2022/12/29 17:02:58;;;;;;;5.70;1.70;;;10.80;99.90;;;;;;4974230;28;20023;-68
2022/12/29 17:05:24;;;;;;;6.72;1.83;;;10.80;99.90;;;;;;4974471;28;20089;-68
2022/12/29 17:07:50;;;;;;;5.17;2.07;;;10.80;99.90;;;;;;4973691;28;20494;-67
2022/12/29 17:10:16;;;;;;;4.22;1.60;;;10.70;99.90;;;;;;4974341;28;20026;-68
2022/12/29 17:12:45;;;;;;;5.22;1.60;;;10.70;99.90;;;;;;4974368;28;20475;-68
2022/12/29 17:15:13;;;;;;;7.30;2.17;;;10.70;99.90;;;;;;4973950;28;20077;-68
2022/12/29 17:17:47;;;;;;;10.60;3.63;;;10.60;99.90;;;;;;4972765;28;20027;-68
2022/12/29 17:20:17;;;;;;;5.10;1.40;;;10.70;99.90;;;;;;4973571;28;20158;-68
2022/12/29 17:22:43;;;;;;;5.80;1.95;;;10.70;99.90;;;;;;4972834;28;20498;-68
2022/12/29 17:25:15;;;;;;;28.90;13.48;;;10.70;99.90;;;;;;4973476;28;20039;-69
2022/12/29 17:28:20;;;;;;;18.70;8.10;;;10.70;99.90;;;;;;4994227;23;20483;-69
2022/12/29 17:30:46;;;;;;;9.98;4.70;;;10.60;99.90;;;;;;4975097;28;20023;-69
2022/12/29 17:33:17;;;;;;;9.18;4.30;;;10.60;99.90;;;;;;4975541;28;20023;-69
2022/12/29 17:35:43;;;;;;;9.63;3.40;;;10.50;99.90;;;;;;4977835;28;20045;-69
2022/12/29 17:38:31;;;;;;;5.55;2.30;;;10.50;99.90;;;;;;4977908;28;20034;-69
2022/12/29 17:40:58;;;;;;;9.75;4.82;;;10.50;99.90;;;;;;4978784;28;20027;-68
2022/12/29 17:43:24;;;;;;;5.15;2.15;;;10.40;99.90;;;;;;4977913;28;20468;-70
2022/12/29 17:45:55;;;;;;;4.72;2.05;;;10.50;99.90;;;;;;4978015;28;20094;-70
2022/12/29 17:48:21;;;;;;;15.73;8.77;;;10.50;99.90;;;;;;4977858;28;20117;-69
2022/12/29 17:50:49;;;;;;;9.13;3.80;;;10.50;99.90;;;;;;4978210;28;20061;-69
2022/12/29 17:53:20;;;;;;;21.23;9.68;;;10.50;99.90;;;;;;4977711;28;20030;-68
2022/12/29 17:55:45;;;;;;;9.50;4.55;;;10.40;99.90;;;;;;4968440;28;20046;-73
2022/12/29 17:58:26;;;;;;;9.70;4.90;;;10.50;99.90;;;;;;4938553;29;20070;-70
2022/12/29 18:00:57;;;;;;;7.20;2.55;;;10.40;99.90;;;;;;4949691;29;20039;-72
2022/12/29 18:03:37;;;;;;;8.82;3.70;;;10.40;99.90;;;;;;4972507;28;20076;-72
2022/12/29 18:06:05;;;;;;;8.13;3.63;;;10.60;99.90;;;;;;4977835;28;20023;-71
2022/12/29 18:08:33;;;;;;;9.80;3.90;;;10.50;99.90;;;;;;4976970;28;20058;-70
2022/12/29 18:10:59;;;;;;;8.45;4.68;;;10.50;99.90;;;;;;4976279;28;20078;-71
2022/12/29 18:13:29;;;;;;;6.53;2.08;;;10.50;99.90;;;;;;4977162;28;20035;-71
2022/12/29 18:15:55;;;;;;;8.52;1.70;;;10.50;99.90;;;;;;4977185;28;20039;-72